Airfield :
LOGIN :

Register | Disclaimer

   EN    FR    IT 

 










Legend :    VFR   Marginal VFR   IFR   Intensive IFR   Very Intensive IFR
Visi :
Ceiling :
>= 8 km
>= 3000ft
5 to 8 km
1000 to 3000 ft
1500m to 5 km
500 to 1000 ft
800 to 1500m
200 to 500 ft
< 800m
< 200 ft
Symbols :   Thunderstorms  Fog  Heavy snow  Heavy precipitations  Wind > 20 kt
SIGMETs :     Misc.  Thunderstorms  Icing  Turbulence  Mountain Waves  Volcanic Ashes







- Airport Elevation : 586 ft


LIMN - Cameri Air Force Base

CURRENT METAR :
  • 141755Z 11004KT CAVOK M00/M02 Q1003 RMK SKC VIS MIN 9999 BLU

EXPIRED METARs :
  • 141655Z VRB02KT CAVOK 03/M01 Q1004 RMK SKC VIS MIN 9999 BLU
  • 141555Z 26003KT 200V290 CAVOK 06/00 Q1005 RMK FEW FEW080 VIS MIN 9999 BLU

TAF TAF LIMN
Valid from the 14 at 18:00 until the 15 at 03:00 UTC


141700Z 1418/1503 VRB05KT CAVOK
BECMG 1420/1422 5000 BR NSC
No reported NOTAMs for that airfield.
2 SIGMETs reported for the Milano FIR (LIMM) :
 
Severe turbulence
LIMM SIGMET 6 VALID 141740/142140 LIIP
LIMM MILANO FIR SEV TURB FCST S OF LINE N4409 E00701 - N4425 E01340 FL020/100 STNR NC=
Severe turbulence
LIMM SIGMET 5 VALID 141740/142140 LIIP
LIMM MILANO FIR SEV TURB FCST WI N4334 E00825 - N4555 E01042 - N4553 E00652 - N4504 E00639 - N4348 E00731 - N4334 E00825 FL100/240 STNR NC=



MET'MAP, your aeronautical weather chart ! - Copyright ORBIFLY December 2007 - Disclaimer

ORBIFLY MET'MAP TEAM :

Programming & Development : Alexandra Zaïnal
Concept & Development : Baudouin d'Aumeries
Co-Development & Prog : Marc-Olivier Méhu
Technical & hardware support : Manuel Goepfert

Contact : metmap@orbifly.com




SOURCES & CREDITS :

   NOAA